sensor_id;sensor_type;location;lat;lon;timestamp;pressure;altitude;pressure_sealevel;temperature;humidity
5812;BME280;2932;52.400;9.558;2023-09-19T00:00:34;99979.88;;;19.62;78.89
5812;BME280;2932;52.400;9.558;2023-09-19T00:03:00;99989.16;;;19.59;78.15
5812;BME280;2932;52.400;9.558;2023-09-19T00:05:27;99985.56;;;19.58;78.60
5812;BME280;2932;52.400;9.558;2023-09-19T00:07:54;99993.97;;;19.24;79.52
5812;BME280;2932;52.400;9.558;2023-09-19T00:10:24;99996.47;;;19.19;80.36
5812;BME280;2932;52.400;9.558;2023-09-19T00:12:53;99996.16;;;19.13;80.28
5812;BME280;2932;52.400;9.558;2023-09-19T00:15:20;100000.59;;;19.11;80.12
5812;BME280;2932;52.400;9.558;2023-09-19T00:17:46;100000.50;;;18.80;80.83
5812;BME280;2932;52.400;9.558;2023-09-19T00:20:14;99988.66;;;19.03;80.65
5812;BME280;2932;52.400;9.558;2023-09-19T00:22:42;99985.41;;;19.08;80.30
5812;BME280;2932;52.400;9.558;2023-09-19T00:25:08;99982.91;;;19.14;80.05
5812;BME280;2932;52.400;9.558;2023-09-19T00:27:40;99996.59;;;19.08;80.03
5812;BME280;2932;52.400;9.558;2023-09-19T00:30:09;99983.94;;;19.27;79.61
5812;BME280;2932;52.400;9.558;2023-09-19T00:32:45;99987.72;;;19.13;79.94
5812;BME280;2932;52.400;9.558;2023-09-19T00:35:15;99988.50;;;19.17;79.81
5812;BME280;2932;52.400;9.558;2023-09-19T00:37:41;100001.72;;;19.17;79.45
5812;BME280;2932;52.400;9.558;2023-09-19T00:40:07;99987.69;;;19.17;79.73
5812;BME280;2932;52.400;9.558;2023-09-19T00:42:40;99985.97;;;18.92;80.28
5812;BME280;2932;52.400;9.558;2023-09-19T00:45:07;99987.56;;;18.93;80.72
5812;BME280;2932;52.400;9.558;2023-09-19T00:47:34;99996.84;;;18.87;80.71
5812;BME280;2932;52.400;9.558;2023-09-19T00:50:00;100002.63;;;18.73;81.31
5812;BME280;2932;52.400;9.558;2023-09-19T00:52:26;100002.38;;;18.94;80.35
5812;BME280;2932;52.400;9.558;2023-09-19T00:54:52;100005.81;;;19.09;80.01
5812;BME280;2932;52.400;9.558;2023-09-19T00:57:17;100007.50;;;18.65;80.94
5812;BME280;2932;52.400;9.558;2023-09-19T00:59:45;100016.63;;;18.73;81.07
5812;BME280;2932;52.400;9.558;2023-09-19T01:02:13;100021.06;;;18.70;81.40
5812;BME280;2932;52.400;9.558;2023-09-19T01:04:40;100017.56;;;18.55;81.08
5812;BME280;2932;52.400;9.558;2023-09-19T01:07:05;100015.78;;;18.79;80.54
5812;BME280;2932;52.400;9.558;2023-09-19T01:09:31;100022.59;;;19.12;80.03
5812;BME280;2932;52.400;9.558;2023-09-19T01:12:01;100018.38;;;19.27;78.85
5812;BME280;2932;52.400;9.558;2023-09-19T01:17:35;100022.75;;;19.32;78.68
5812;BME280;2932;52.400;9.558;2023-09-19T01:20:22;100027.56;;;18.97;79.67
5812;BME280;2932;52.400;9.558;2023-09-19T01:25:50;100037.47;;;19.09;78.50
5812;BME280;2932;52.400;9.558;2023-09-19T01:28:31;100031.09;;;19.05;78.67
5812;BME280;2932;52.400;9.558;2023-09-19T01:31:02;100038.94;;;18.83;79.05
5812;BME280;2932;52.400;9.558;2023-09-19T01:33:28;100040.38;;;18.98;79.14
5812;BME280;2932;52.400;9.558;2023-09-19T01:36:26;100041.69;;;18.87;79.27
5812;BME280;2932;52.400;9.558;2023-09-19T01:38:53;100044.53;;;18.83;79.16
5812;BME280;2932;52.400;9.558;2023-09-19T01:41:29;100038.53;;;18.81;79.18
5812;BME280;2932;52.400;9.558;2023-09-19T01:43:56;100045.00;;;18.78;79.55
5812;BME280;2932;52.400;9.558;2023-09-19T01:46:25;100051.16;;;18.59;80.00
5812;BME280;2932;52.400;9.558;2023-09-19T01:51:42;100047.41;;;18.31;80.83
5812;BME280;2932;52.400;9.558;2023-09-19T01:54:12;100035.63;;;18.51;80.60
5812;BME280;2932;52.400;9.558;2023-09-19T01:56:45;100033.59;;;18.55;80.33
5812;BME280;2932;52.400;9.558;2023-09-19T01:59:17;100033.19;;;18.53;80.30
5812;BME280;2932;52.400;9.558;2023-09-19T02:01:47;100059.56;;;18.59;80.04
5812;BME280;2932;52.400;9.558;2023-09-19T02:04:14;100040.91;;;18.42;80.17
5812;BME280;2932;52.400;9.558;2023-09-19T02:06:41;100041.75;;;18.39;80.60
5812;BME280;2932;52.400;9.558;2023-09-19T02:09:07;100057.28;;;18.43;80.71
5812;BME280;2932;52.400;9.558;2023-09-19T02:11:34;100055.31;;;18.40;81.20
5812;BME280;2932;52.400;9.558;2023-09-19T02:13:59;100054.06;;;18.45;81.08
5812;BME280;2932;52.400;9.558;2023-09-19T02:16:24;100054.09;;;18.41;81.01
5812;BME280;2932;52.400;9.558;2023-09-19T02:18:50;100065.69;;;18.43;81.13
5812;BME280;2932;52.400;9.558;2023-09-19T02:21:19;100069.44;;;18.29;81.81
5812;BME280;2932;52.400;9.558;2023-09-19T02:23:46;100063.72;;;18.40;81.02
5812;BME280;2932;52.400;9.558;2023-09-19T02:26:16;100067.31;;;18.41;80.51
5812;BME280;2932;52.400;9.558;2023-09-19T02:28:41;100074.91;;;18.44;80.24
5812;BME280;2932;52.400;9.558;2023-09-19T02:31:07;100082.09;;;18.45;80.33
5812;BME280;2932;52.400;9.558;2023-09-19T02:33:32;100079.00;;;18.32;80.13
5812;BME280;2932;52.400;9.558;2023-09-19T02:35:59;100078.44;;;18.51;80.08
5812;BME280;2932;52.400;9.558;2023-09-19T02:38:27;100081.25;;;18.48;79.48
5812;BME280;2932;52.400;9.558;2023-09-19T02:40:54;100084.84;;;18.52;79.58
5812;BME280;2932;52.400;9.558;2023-09-19T02:43:21;100090.53;;;18.41;79.60
5812;BME280;2932;52.400;9.558;2023-09-19T02:45:47;100090.34;;;18.70;79.53
5812;BME280;2932;52.400;9.558;2023-09-19T02:48:14;100091.44;;;18.27;79.74
5812;BME280;2932;52.400;9.558;2023-09-19T02:50:40;100092.97;;;18.39;79.69
5812;BME280;2932;52.400;9.558;2023-09-19T02:53:06;100100.34;;;18.12;80.12
5812;BME280;2932;52.400;9.558;2023-09-19T02:55:32;100107.94;;;18.15;80.37
5812;BME280;2932;52.400;9.558;2023-09-19T02:57:57;100097.09;;;18.20;80.13
5812;BME280;2932;52.400;9.558;2023-09-19T03:00:23;100106.75;;;18.12;80.55
5812;BME280;2932;52.400;9.558;2023-09-19T03:02:49;100109.53;;;18.16;80.64
5812;BME280;2932;52.400;9.558;2023-09-19T03:05:15;100108.28;;;18.20;80.35
5812;BME280;2932;52.400;9.558;2023-09-19T03:07:42;100099.16;;;18.09;79.79
5812;BME280;2932;52.400;9.558;2023-09-19T03:10:09;100108.50;;;17.85;80.55
5812;BME280;2932;52.400;9.558;2023-09-19T03:12:34;100116.47;;;17.93;80.61
5812;BME280;2932;52.400;9.558;2023-09-19T03:15:00;100118.38;;;18.07;79.98
5812;BME280;2932;52.400;9.558;2023-09-19T03:17:25;100122.53;;;17.78;80.26
5812;BME280;2932;52.400;9.558;2023-09-19T03:19:51;100122.06;;;17.97;80.03
5812;BME280;2932;52.400;9.558;2023-09-19T03:22:16;100129.69;;;17.89;79.59
5812;BME280;2932;52.400;9.558;2023-09-19T03:24:42;100126.50;;;17.84;79.77
5812;BME280;2932;52.400;9.558;2023-09-19T03:27:12;100134.91;;;17.80;79.95
5812;BME280;2932;52.400;9.558;2023-09-19T03:29:41;100135.25;;;17.96;79.03
5812;BME280;2932;52.400;9.558;2023-09-19T03:32:06;100130.97;;;17.71;79.00
5812;BME280;2932;52.400;9.558;2023-09-19T03:34:32;100127.34;;;17.74;79.20
5812;BME280;2932;52.400;9.558;2023-09-19T03:36:57;100135.75;;;17.74;79.22
5812;BME280;2932;52.400;9.558;2023-09-19T03:39:22;100140.09;;;17.89;78.53
5812;BME280;2932;52.400;9.558;2023-09-19T03:41:48;100128.91;;;17.82;78.96
5812;BME280;2932;52.400;9.558;2023-09-19T03:44:14;100132.88;;;17.88;78.31
5812;BME280;2932;52.400;9.558;2023-09-19T03:46:40;100138.44;;;17.98;77.98
5812;BME280;2932;52.400;9.558;2023-09-19T03:49:05;100140.50;;;17.87;77.90
5812;BME280;2932;52.400;9.558;2023-09-19T03:51:31;100141.66;;;17.93;78.15
5812;BME280;2932;52.400;9.558;2023-09-19T03:53:56;100141.97;;;18.06;76.94
5812;BME280;2932;52.400;9.558;2023-09-19T03:56:21;100125.59;;;18.05;76.85
5812;BME280;2932;52.400;9.558;2023-09-19T03:58:47;100131.19;;;18.01;76.51
5812;BME280;2932;52.400;9.558;2023-09-19T04:01:12;100127.69;;;17.90;76.35
5812;BME280;2932;52.400;9.558;2023-09-19T04:03:38;100129.59;;;18.00;76.67
5812;BME280;2932;52.400;9.558;2023-09-19T04:06:14;100127.56;;;18.08;75.50
5812;BME280;2932;52.400;9.558;2023-09-19T04:08:39;100135.19;;;18.04;75.45
5812;BME280;2932;52.400;9.558;2023-09-19T04:11:05;100141.69;;;17.86;76.13
5812;BME280;2932;52.400;9.558;2023-09-19T04:13:30;100143.31;;;17.84;76.30
5812;BME280;2932;52.400;9.558;2023-09-19T04:15:55;100142.47;;;17.94;75.98
5812;BME280;2932;52.400;9.558;2023-09-19T04:18:21;100141.94;;;18.10;75.56
5812;BME280;2932;52.400;9.558;2023-09-19T04:20:51;100145.53;;;18.14;75.89
5812;BME280;2932;52.400;9.558;2023-09-19T04:23:17;100144.06;;;17.91;75.54
5812;BME280;2932;52.400;9.558;2023-09-19T04:25:43;100159.28;;;17.90;75.40
5812;BME280;2932;52.400;9.558;2023-09-19T04:28:08;100165.66;;;17.94;75.77
5812;BME280;2932;52.400;9.558;2023-09-19T04:30:36;100154.06;;;17.96;76.05
5812;BME280;2932;52.400;9.558;2023-09-19T04:33:01;100159.59;;;18.03;75.29
5812;BME280;2932;52.400;9.558;2023-09-19T04:35:27;100154.50;;;17.80;75.54
5812;BME280;2932;52.400;9.558;2023-09-19T04:37:54;100167.34;;;17.71;76.63
5812;BME280;2932;52.400;9.558;2023-09-19T04:40:20;100178.56;;;17.56;77.49
5812;BME280;2932;52.400;9.558;2023-09-19T04:42:45;100180.16;;;17.57;76.76
5812;BME280;2932;52.400;9.558;2023-09-19T04:45:11;100186.56;;;17.47;77.70
5812;BME280;2932;52.400;9.558;2023-09-19T04:47:37;100178.97;;;17.48;77.22
5812;BME280;2932;52.400;9.558;2023-09-19T04:50:08;100182.13;;;17.75;76.64
5812;BME280;2932;52.400;9.558;2023-09-19T04:52:40;100189.72;;;17.67;76.71
5812;BME280;2932;52.400;9.558;2023-09-19T04:55:13;100191.31;;;17.68;77.09
5812;BME280;2932;52.400;9.558;2023-09-19T04:57:48;100192.91;;;17.69;77.51
5812;BME280;2932;52.400;9.558;2023-09-19T05:00:19;100190.50;;;17.75;77.81
5812;BME280;2932;52.400;9.558;2023-09-19T05:02:51;100187.22;;;17.97;76.96
5812;BME280;2932;52.400;9.558;2023-09-19T05:05:18;100198.88;;;17.82;76.64
5812;BME280;2932;52.400;9.558;2023-09-19T05:07:44;100178.09;;;17.83;77.64
5812;BME280;2932;52.400;9.558;2023-09-19T05:10:10;100185.56;;;18.04;76.81
5812;BME280;2932;52.400;9.558;2023-09-19T05:12:37;100188.47;;;17.89;77.54
5812;BME280;2932;52.400;9.558;2023-09-19T05:15:03;100182.09;;;17.85;77.21
5812;BME280;2932;52.400;9.558;2023-09-19T05:17:29;100193.78;;;17.45;78.58
5812;BME280;2932;52.400;9.558;2023-09-19T05:19:54;100193.38;;;17.39;78.83
5812;BME280;2932;52.400;9.558;2023-09-19T05:22:20;100207.78;;;17.27;79.35
5812;BME280;2932;52.400;9.558;2023-09-19T05:24:45;100208.22;;;17.18;79.91
5812;BME280;2932;52.400;9.558;2023-09-19T05:27:16;100207.78;;;17.34;79.64
5812;BME280;2932;52.400;9.558;2023-09-19T05:29:45;100216.16;;;17.20;79.00
5812;BME280;2932;52.400;9.558;2023-09-19T05:32:10;100224.19;;;17.11;78.90
5812;BME280;2932;52.400;9.558;2023-09-19T05:34:36;100212.53;;;17.58;78.35
5812;BME280;2932;52.400;9.558;2023-09-19T05:37:02;100230.19;;;17.09;78.22
5812;BME280;2932;52.400;9.558;2023-09-19T05:39:27;100225.34;;;17.38;77.38
5812;BME280;2932;52.400;9.558;2023-09-19T05:41:53;100223.28;;;17.63;76.99
5812;BME280;2932;52.400;9.558;2023-09-19T05:44:18;100247.31;;;17.54;76.83
5812;BME280;2932;52.400;9.558;2023-09-19T05:46:43;100255.72;;;17.29;77.00
5812;BME280;2932;52.400;9.558;2023-09-19T05:49:10;100265.28;;;17.21;77.13
5812;BME280;2932;52.400;9.558;2023-09-19T05:51:35;100278.88;;;17.26;77.26
5812;BME280;2932;52.400;9.558;2023-09-19T05:54:00;100280.09;;;17.18;76.85
5812;BME280;2932;52.400;9.558;2023-09-19T05:56:26;100282.50;;;17.19;76.87
5812;BME280;2932;52.400;9.558;2023-09-19T05:58:52;100284.06;;;17.24;76.88
5812;BME280;2932;52.400;9.558;2023-09-19T06:01:18;100280.06;;;17.25;76.30
5812;BME280;2932;52.400;9.558;2023-09-19T06:03:44;100277.31;;;17.18;76.63
5812;BME280;2932;52.400;9.558;2023-09-19T06:06:09;100287.66;;;17.46;75.96
5812;BME280;2932;52.400;9.558;2023-09-19T06:08:35;100286.88;;;17.17;76.16
5812;BME280;2932;52.400;9.558;2023-09-19T06:11:00;100290.88;;;17.41;76.01
5812;BME280;2932;52.400;9.558;2023-09-19T06:13:28;100294.06;;;17.14;76.47
5812;BME280;2932;52.400;9.558;2023-09-19T06:15:57;100288.88;;;17.34;75.61
5812;BME280;2932;52.400;9.558;2023-09-19T06:18:23;100303.63;;;17.24;75.78
5812;BME280;2932;52.400;9.558;2023-09-19T06:20:51;100297.66;;;17.22;76.70
5812;BME280;2932;52.400;9.558;2023-09-19T06:23:17;100284.09;;;17.10;76.20
5812;BME280;2932;52.400;9.558;2023-09-19T06:25:43;100289.66;;;17.24;75.36
5812;BME280;2932;52.400;9.558;2023-09-19T06:28:09;100282.91;;;17.14;75.47
5812;BME280;2932;52.400;9.558;2023-09-19T06:30:37;100280.88;;;17.36;74.93
5812;BME280;2932;52.400;9.558;2023-09-19T06:33:05;100303.66;;;17.17;74.33
5812;BME280;2932;52.400;9.558;2023-09-19T06:35:32;100265.69;;;17.33;74.66
5812;BME280;2932;52.400;9.558;2023-09-19T06:37:58;100272.09;;;17.23;74.30
5812;BME280;2932;52.400;9.558;2023-09-19T06:40:23;100271.25;;;17.80;73.94
5812;BME280;2932;52.400;9.558;2023-09-19T06:42:53;100272.06;;;17.66;73.36
5812;BME280;2932;52.400;9.558;2023-09-19T06:45:19;100264.84;;;17.76;73.19
5812;BME280;2932;52.400;9.558;2023-09-19T06:47:45;100264.84;;;17.86;72.80
5812;BME280;2932;52.400;9.558;2023-09-19T06:50:11;100280.88;;;17.54;72.86
5812;BME280;2932;52.400;9.558;2023-09-19T06:52:42;100293.25;;;17.42;72.87
5812;BME280;2932;52.400;9.558;2023-09-19T06:55:08;100281.22;;;17.95;71.79
5812;BME280;2932;52.400;9.558;2023-09-19T06:57:35;100299.66;;;17.71;72.41
5812;BME280;2932;52.400;9.558;2023-09-19T07:00:01;100316.03;;;17.69;72.69
5812;BME280;2932;52.400;9.558;2023-09-19T07:02:27;100302.03;;;17.62;72.91
5812;BME280;2932;52.400;9.558;2023-09-19T07:04:52;100299.25;;;17.76;72.24
5812;BME280;2932;52.400;9.558;2023-09-19T07:07:17;100302.44;;;17.78;71.46
5812;BME280;2932;52.400;9.558;2023-09-19T07:09:43;100293.19;;;17.99;71.71
5812;BME280;2932;52.400;9.558;2023-09-19T07:12:08;100304.44;;;17.85;70.98
5812;BME280;2932;52.400;9.558;2023-09-19T07:14:33;100295.56;;;18.00;71.28
5812;BME280;2932;52.400;9.558;2023-09-19T07:16:59;100294.72;;;18.14;70.80
5812;BME280;2932;52.400;9.558;2023-09-19T07:19:25;100317.22;;;17.89;70.22
5812;BME280;2932;52.400;9.558;2023-09-19T07:21:53;100328.81;;;17.81;70.47
5812;BME280;2932;52.400;9.558;2023-09-19T07:24:19;100309.53;;;18.11;70.57
5812;BME280;2932;52.400;9.558;2023-09-19T07:26:45;100302.34;;;18.03;70.01
5812;BME280;2932;52.400;9.558;2023-09-19T07:29:10;100309.91;;;18.24;69.91
5812;BME280;2932;52.400;9.558;2023-09-19T07:31:36;100320.22;;;18.41;69.27
5812;BME280;2932;52.400;9.558;2023-09-19T07:34:01;100313.41;;;18.46;69.45
5812;BME280;2932;52.400;9.558;2023-09-19T07:36:29;100327.81;;;18.41;68.94
5812;BME280;2932;52.400;9.558;2023-09-19T07:38:54;100319.88;;;18.28;68.46
5812;BME280;2932;52.400;9.558;2023-09-19T07:41:20;100338.22;;;18.40;68.87
5812;BME280;2932;52.400;9.558;2023-09-19T07:43:46;100330.13;;;18.74;68.21
5812;BME280;2932;52.400;9.558;2023-09-19T07:46:11;100330.91;;;18.75;67.81
5812;BME280;2932;52.400;9.558;2023-09-19T07:48:37;100326.28;;;18.29;68.38
5812;BME280;2932;52.400;9.558;2023-09-19T07:51:08;100334.59;;;18.61;67.73
5812;BME280;2932;52.400;9.558;2023-09-19T07:53:34;100340.19;;;18.50;68.38
5812;BME280;2932;52.400;9.558;2023-09-19T07:56:04;100339.13;;;18.19;68.07
5812;BME280;2932;52.400;9.558;2023-09-19T07:58:30;100376.72;;;18.22;68.59
5812;BME280;2932;52.400;9.558;2023-09-19T08:00:56;100335.06;;;18.35;68.16
5812;BME280;2932;52.400;9.558;2023-09-19T08:03:21;100335.78;;;18.60;68.51
5812;BME280;2932;52.400;9.558;2023-09-19T08:05:47;100346.16;;;18.67;67.31
5812;BME280;2932;52.400;9.558;2023-09-19T08:08:13;100335.38;;;18.58;67.78
5812;BME280;2932;52.400;9.558;2023-09-19T08:10:39;100333.53;;;19.03;66.90
5812;BME280;2932;52.400;9.558;2023-09-19T08:13:07;100348.59;;;19.23;66.12
5812;BME280;2932;52.400;9.558;2023-09-19T08:15:36;100348.13;;;18.77;66.20
5812;BME280;2932;52.400;9.558;2023-09-19T08:18:08;100358.19;;;18.53;66.81
5812;BME280;2932;52.400;9.558;2023-09-19T08:20:35;100354.19;;;18.61;67.10
5812;BME280;2932;52.400;9.558;2023-09-19T08:23:03;100344.00;;;18.95;66.68
5812;BME280;2932;52.400;9.558;2023-09-19T08:25:29;100357.38;;;18.70;66.72
5812;BME280;2932;52.400;9.558;2023-09-19T08:27:55;100346.53;;;18.72;66.99
5812;BME280;2932;52.400;9.558;2023-09-19T08:30:24;100344.78;;;18.96;66.56
5812;BME280;2932;52.400;9.558;2023-09-19T08:32:50;100357.97;;;19.06;65.93
5812;BME280;2932;52.400;9.558;2023-09-19T08:35:15;100352.22;;;18.47;66.68
5812;BME280;2932;52.400;9.558;2023-09-19T08:37:42;100362.06;;;18.84;66.17
5812;BME280;2932;52.400;9.558;2023-09-19T08:40:08;100354.91;;;18.79;66.00
5812;BME280;2932;52.400;9.558;2023-09-19T08:42:50;100353.59;;;18.98;65.71
5812;BME280;2932;52.400;9.558;2023-09-19T08:45:16;100343.03;;;19.20;65.32
5812;BME280;2932;52.400;9.558;2023-09-19T08:47:46;100350.84;;;18.87;64.94
5812;BME280;2932;52.400;9.558;2023-09-19T08:50:28;100358.06;;;18.85;65.73
5812;BME280;2932;52.400;9.558;2023-09-19T08:52:55;100357.16;;;19.06;65.64
5812;BME280;2932;52.400;9.558;2023-09-19T08:55:26;100351.81;;;19.22;65.41
5812;BME280;2932;52.400;9.558;2023-09-19T08:57:57;100348.69;;;19.16;65.25
5812;BME280;2932;52.400;9.558;2023-09-19T09:00:24;100358.97;;;19.30;65.37
5812;BME280;2932;52.400;9.558;2023-09-19T09:02:54;100352.28;;;19.17;65.17
5812;BME280;2932;52.400;9.558;2023-09-19T09:05:21;100359.19;;;19.02;66.11
5812;BME280;2932;52.400;9.558;2023-09-19T09:07:49;100361.84;;;19.23;65.29
5812;BME280;2932;52.400;9.558;2023-09-19T09:10:17;100356.50;;;19.43;65.78
5812;BME280;2932;52.400;9.558;2023-09-19T09:12:42;100363.34;;;19.35;64.91
5812;BME280;2932;52.400;9.558;2023-09-19T09:15:09;100375.00;;;19.33;65.37
5812;BME280;2932;52.400;9.558;2023-09-19T09:17:37;100363.34;;;19.35;64.97
5812;BME280;2932;52.400;9.558;2023-09-19T09:20:02;100369.81;;;19.28;65.44
5812;BME280;2932;52.400;9.558;2023-09-19T09:22:30;100369.28;;;19.47;64.87
5812;BME280;2932;52.400;9.558;2023-09-19T09:24:57;100361.81;;;19.26;65.00
5812;BME280;2932;52.400;9.558;2023-09-19T09:27:32;100356.13;;;19.37;65.62
5812;BME280;2932;52.400;9.558;2023-09-19T09:29:59;100371.91;;;19.17;64.90
5812;BME280;2932;52.400;9.558;2023-09-19T09:32:26;100362.59;;;19.30;65.42
5812;BME280;2932;52.400;9.558;2023-09-19T09:34:55;100363.16;;;19.63;65.38
5812;BME280;2932;52.400;9.558;2023-09-19T09:37:22;100350.25;;;20.10;63.83
5812;BME280;2932;52.400;9.558;2023-09-19T09:39:59;100358.53;;;19.87;62.78
5812;BME280;2932;52.400;9.558;2023-09-19T09:42:44;100367.56;;;19.09;64.08
5812;BME280;2932;52.400;9.558;2023-09-19T09:47:47;100379.56;;;19.09;63.77
5812;BME280;2932;52.400;9.558;2023-09-19T09:50:30;100383.78;;;19.35;63.95
5812;BME280;2932;52.400;9.558;2023-09-19T09:53:33;100370.47;;;19.50;63.80
5812;BME280;2932;52.400;9.558;2023-09-19T09:56:08;100368.03;;;19.59;63.52
5812;BME280;2932;52.400;9.558;2023-09-19T09:58:51;100373.53;;;19.70;62.21
5812;BME280;2932;52.400;9.558;2023-09-19T10:01:24;100388.09;;;19.57;62.83
5812;BME280;2932;52.400;9.558;2023-09-19T10:03:57;100389.72;;;19.55;63.14
5812;BME280;2932;52.400;9.558;2023-09-19T10:06:23;100376.84;;;19.57;63.68
5812;BME280;2932;52.400;9.558;2023-09-19T10:09:05;100374.25;;;19.77;63.84
5812;BME280;2932;52.400;9.558;2023-09-19T10:11:45;100380.44;;;20.03;64.19
5812;BME280;2932;52.400;9.558;2023-09-19T10:14:13;100375.56;;;20.48;63.11
5812;BME280;2932;52.400;9.558;2023-09-19T10:16:45;100387.19;;;20.50;62.22
5812;BME280;2932;52.400;9.558;2023-09-19T10:19:15;100371.09;;;20.50;62.11
5812;BME280;2932;52.400;9.558;2023-09-19T10:21:41;100374.00;;;20.02;62.39
5812;BME280;2932;52.400;9.558;2023-09-19T10:24:08;100369.16;;;20.06;62.63
5812;BME280;2932;52.400;9.558;2023-09-19T10:26:36;100373.13;;;20.50;62.38
5812;BME280;2932;52.400;9.558;2023-09-19T10:29:01;100380.91;;;20.39;62.98
5812;BME280;2932;52.400;9.558;2023-09-19T10:31:29;100370.16;;;20.26;62.65
5812;BME280;2932;52.400;9.558;2023-09-19T10:33:55;100362.13;;;20.62;61.89
5812;BME280;2932;52.400;9.558;2023-09-19T10:36:24;100373.00;;;20.91;61.31
5812;BME280;2932;52.400;9.558;2023-09-19T10:38:56;100362.94;;;20.25;62.08
5812;BME280;2932;52.400;9.558;2023-09-19T10:41:23;100382.72;;;20.52;61.30
5812;BME280;2932;52.400;9.558;2023-09-19T10:43:50;100364.59;;;20.87;60.97
5812;BME280;2932;52.400;9.558;2023-09-19T10:46:19;100365.59;;;21.04;60.68
5812;BME280;2932;52.400;9.558;2023-09-19T10:48:44;100382.19;;;20.95;60.36
5812;BME280;2932;52.400;9.558;2023-09-19T10:51:20;100376.13;;;20.96;60.62
5812;BME280;2932;52.400;9.558;2023-09-19T10:54:18;100378.34;;;21.39;60.33
5812;BME280;2932;52.400;9.558;2023-09-19T10:56:48;100372.28;;;21.14;60.46
5812;BME280;2932;52.400;9.558;2023-09-19T10:59:17;100385.94;;;20.85;60.77
5812;BME280;2932;52.400;9.558;2023-09-19T11:04:29;100424.81;;;21.20;59.33
5812;BME280;2932;52.400;9.558;2023-09-19T11:12:08;100369.19;;;20.78;59.44
5812;BME280;2932;52.400;9.558;2023-09-19T11:14:38;100374.13;;;20.97;59.58
5812;BME280;2932;52.400;9.558;2023-09-19T11:23:18;100370.75;;;21.36;59.01
5812;BME280;2932;52.400;9.558;2023-09-19T11:25:47;100364.84;;;21.54;58.43
5812;BME280;2932;52.400;9.558;2023-09-19T11:30:47;100376.38;;;21.09;58.67
5812;BME280;2932;52.400;9.558;2023-09-19T11:33:20;100363.00;;;21.44;58.82
5812;BME280;2932;52.400;9.558;2023-09-19T11:36:12;100360.88;;;21.75;57.35
5812;BME280;2932;52.400;9.558;2023-09-19T11:46:33;100364.06;;;21.53;57.06
5812;BME280;2932;52.400;9.558;2023-09-19T11:49:08;100402.97;;;21.32;56.47
5812;BME280;2932;52.400;9.558;2023-09-19T11:51:42;100357.94;;;21.05;57.52
5812;BME280;2932;52.400;9.558;2023-09-19T11:54:13;100363.69;;;21.51;57.25
5812;BME280;2932;52.400;9.558;2023-09-19T11:56:43;100366.13;;;21.73;56.98
5812;BME280;2932;52.400;9.558;2023-09-19T11:59:09;100367.53;;;21.84;56.17
5812;BME280;2932;52.400;9.558;2023-09-19T12:01:38;100372.94;;;21.52;57.81
5812;BME280;2932;52.400;9.558;2023-09-19T12:04:11;100376.38;;;21.09;58.94
5812;BME280;2932;52.400;9.558;2023-09-19T12:06:37;100368.72;;;21.10;58.54
5812;BME280;2932;52.400;9.558;2023-09-19T12:09:12;100365.91;;;21.10;59.64
5812;BME280;2932;52.400;9.558;2023-09-19T12:11:42;100359.69;;;20.95;59.98
5812;BME280;2932;52.400;9.558;2023-09-19T12:14:09;100356.59;;;20.86;59.27
5812;BME280;2932;52.400;9.558;2023-09-19T12:16:35;100369.31;;;20.67;59.93
5812;BME280;2932;52.400;9.558;2023-09-19T12:19:22;100372.94;;;20.94;59.00
5812;BME280;2932;52.400;9.558;2023-09-19T12:22:01;100368.13;;;20.95;60.11
5812;BME280;2932;52.400;9.558;2023-09-19T12:24:30;100366.16;;;20.92;60.07
5812;BME280;2932;52.400;9.558;2023-09-19T12:27:06;100379.78;;;20.63;59.64
5812;BME280;2932;52.400;9.558;2023-09-19T12:29:41;100365.50;;;20.81;59.99
5812;BME280;2932;52.400;9.558;2023-09-19T12:32:07;100368.25;;;20.54;60.08
5812;BME280;2932;52.400;9.558;2023-09-19T12:34:33;100370.31;;;20.50;59.97
5812;BME280;2932;52.400;9.558;2023-09-19T12:39:42;100366.28;;;21.39;59.08
5812;BME280;2932;52.400;9.558;2023-09-19T12:42:10;100373.72;;;20.68;59.57
5812;BME280;2932;52.400;9.558;2023-09-19T12:44:40;100360.63;;;20.85;60.09
5812;BME280;2932;52.400;9.558;2023-09-19T12:47:12;100353.59;;;21.00;59.97
5812;BME280;2932;52.400;9.558;2023-09-19T12:52:40;100343.47;;;21.33;59.15
5812;BME280;2932;52.400;9.558;2023-09-19T12:55:05;100351.69;;;21.71;58.80
5812;BME280;2932;52.400;9.558;2023-09-19T12:57:33;100349.34;;;22.12;57.87
5812;BME280;2932;52.400;9.558;2023-09-19T13:00:01;100338.16;;;21.85;57.29
5812;BME280;2932;52.400;9.558;2023-09-19T13:02:27;100346.91;;;21.91;56.88
5812;BME280;2932;52.400;9.558;2023-09-19T13:04:54;100339.00;;;22.06;56.02
5812;BME280;2932;52.400;9.558;2023-09-19T13:07:41;100336.56;;;22.27;56.17
5812;BME280;2932;52.400;9.558;2023-09-19T13:10:09;100352.03;;;22.39;55.48
5812;BME280;2932;52.400;9.558;2023-09-19T13:12:36;100316.22;;;22.76;54.87
5812;BME280;2932;52.400;9.558;2023-09-19T13:15:10;100330.56;;;23.01;54.83
5812;BME280;2932;52.400;9.558;2023-09-19T13:17:46;100326.84;;;23.56;53.38
5812;BME280;2932;52.400;9.558;2023-09-19T13:20:27;100326.44;;;24.16;51.97
5812;BME280;2932;52.400;9.558;2023-09-19T13:22:53;100326.53;;;24.29;50.94
5812;BME280;2932;52.400;9.558;2023-09-19T13:25:21;100328.41;;;23.74;51.89
5812;BME280;2932;52.400;9.558;2023-09-19T13:27:51;100328.75;;;23.76;52.42
5812;BME280;2932;52.400;9.558;2023-09-19T13:30:18;100321.63;;;22.86;54.40
5812;BME280;2932;52.400;9.558;2023-09-19T13:32:44;100326.75;;;22.91;54.13
5812;BME280;2932;52.400;9.558;2023-09-19T13:35:15;100304.94;;;23.44;53.00
5812;BME280;2932;52.400;9.558;2023-09-19T13:37:41;100303.91;;;23.54;52.62
5812;BME280;2932;52.400;9.558;2023-09-19T13:40:08;100308.34;;;23.03;53.77
5812;BME280;2932;52.400;9.558;2023-09-19T13:42:34;100303.34;;;24.05;52.05
5812;BME280;2932;52.400;9.558;2023-09-19T13:45:03;100294.81;;;24.88;50.93
5812;BME280;2932;52.400;9.558;2023-09-19T13:47:32;100315.00;;;24.07;51.04
5812;BME280;2932;52.400;9.558;2023-09-19T13:50:02;100297.38;;;24.44;51.50
5812;BME280;2932;52.400;9.558;2023-09-19T13:52:29;100303.69;;;24.77;50.56
5812;BME280;2932;52.400;9.558;2023-09-19T13:54:55;100294.25;;;24.80;50.53
5812;BME280;2932;52.400;9.558;2023-09-19T13:57:27;100293.59;;;25.27;50.42
5812;BME280;2932;52.400;9.558;2023-09-19T13:59:54;100296.75;;;24.91;50.19